sensor_id;sensor_type;location;lat;lon;timestamp;temperature;humidity
4548;DHT22;2286;51.570;7.090;2023-05-15T00:00:43;14.00;1.00
4548;DHT22;2286;51.570;7.090;2023-05-15T00:03:10;14.00;99.90
4548;DHT22;2286;51.570;7.090;2023-05-15T00:05:37;14.00;99.90
4548;DHT22;2286;51.570;7.090;2023-05-15T00:08:05;14.00;1.00
4548;DHT22;2286;51.570;7.090;2023-05-15T00:10:33;14.10;1.00
4548;DHT22;2286;51.570;7.090;2023-05-15T00:13:00;14.00;1.00
4548;DHT22;2286;51.570;7.090;2023-05-15T00:15:27;14.00;1.00
4548;DHT22;2286;51.570;7.090;2023-05-15T00:17:54;13.90;27.80
4548;DHT22;2286;51.570;7.090;2023-05-15T00:20:21;13.90;99.90
4548;DHT22;2286;51.570;7.090;2023-05-15T00:22:48;13.80;99.90
4548;DHT22;2286;51.570;7.090;2023-05-15T00:25:16;13.70;99.90
4548;DHT22;2286;51.570;7.090;2023-05-15T00:27:45;13.70;99.90
4548;DHT22;2286;51.570;7.090;2023-05-15T00:30:13;13.80;99.90
4548;DHT22;2286;51.570;7.090;2023-05-15T00:32:40;13.80;99.90
4548;DHT22;2286;51.570;7.090;2023-05-15T00:35:08;13.70;99.90
4548;DHT22;2286;51.570;7.090;2023-05-15T00:37:35;13.70;99.90
4548;DHT22;2286;51.570;7.090;2023-05-15T00:40:02;13.60;99.90
4548;DHT22;2286;51.570;7.090;2023-05-15T00:42:30;13.60;99.90
4548;DHT22;2286;51.570;7.090;2023-05-15T00:45:00;13.60;99.90
4548;DHT22;2286;51.570;7.090;2023-05-15T00:47:29;13.60;99.90
4548;DHT22;2286;51.570;7.090;2023-05-15T00:49:57;13.60;99.90
4548;DHT22;2286;51.570;7.090;2023-05-15T00:52:25;13.50;99.90
4548;DHT22;2286;51.570;7.090;2023-05-15T00:54:52;13.50;99.90
4548;DHT22;2286;51.570;7.090;2023-05-15T00:57:20;13.50;99.90
4548;DHT22;2286;51.570;7.090;2023-05-15T00:59:49;13.40;99.90
4548;DHT22;2286;51.570;7.090;2023-05-15T01:02:19;13.50;99.90
4548;DHT22;2286;51.570;7.090;2023-05-15T01:04:46;13.50;99.90
4548;DHT22;2286;51.570;7.090;2023-05-15T01:07:13;13.50;99.90
4548;DHT22;2286;51.570;7.090;2023-05-15T01:09:41;13.40;99.90
4548;DHT22;2286;51.570;7.090;2023-05-15T01:12:09;13.30;99.90
4548;DHT22;2286;51.570;7.090;2023-05-15T01:14:37;13.30;99.90
4548;DHT22;2286;51.570;7.090;2023-05-15T01:17:04;13.20;99.90
4548;DHT22;2286;51.570;7.090;2023-05-15T01:19:32;13.20;99.90
4548;DHT22;2286;51.570;7.090;2023-05-15T01:22:33;13.30;99.90
4548;DHT22;2286;51.570;7.090;2023-05-15T01:25:29;13.20;99.90
4548;DHT22;2286;51.570;7.090;2023-05-15T01:28:01;13.20;99.90
4548;DHT22;2286;51.570;7.090;2023-05-15T01:30:32;13.20;99.90
4548;DHT22;2286;51.570;7.090;2023-05-15T01:33:03;13.10;99.90
4548;DHT22;2286;51.570;7.090;2023-05-15T01:35:33;13.10;99.90
4548;DHT22;2286;51.570;7.090;2023-05-15T01:38:09;13.10;99.90
4548;DHT22;2286;51.570;7.090;2023-05-15T01:40:37;13.20;99.90
4548;DHT22;2286;51.570;7.090;2023-05-15T01:43:08;13.30;99.90
4548;DHT22;2286;51.570;7.090;2023-05-15T01:45:37;13.40;99.90
4548;DHT22;2286;51.570;7.090;2023-05-15T01:48:07;13.40;99.90
4548;DHT22;2286;51.570;7.090;2023-05-15T01:50:37;13.40;99.90
4548;DHT22;2286;51.570;7.090;2023-05-15T01:53:07;13.40;99.90
4548;DHT22;2286;51.570;7.090;2023-05-15T01:55:36;13.40;99.90
4548;DHT22;2286;51.570;7.090;2023-05-15T01:58:03;13.40;99.90
4548;DHT22;2286;51.570;7.090;2023-05-15T02:00:32;13.50;99.90
4548;DHT22;2286;51.570;7.090;2023-05-15T02:03:00;13.50;99.90
4548;DHT22;2286;51.570;7.090;2023-05-15T02:05:28;13.50;99.90
4548;DHT22;2286;51.570;7.090;2023-05-15T02:07:55;13.60;99.90
4548;DHT22;2286;51.570;7.090;2023-05-15T02:10:23;13.60;99.90
4548;DHT22;2286;51.570;7.090;2023-05-15T02:12:51;13.60;99.90
4548;DHT22;2286;51.570;7.090;2023-05-15T02:15:19;13.60;99.90
4548;DHT22;2286;51.570;7.090;2023-05-15T02:17:49;13.60;99.90
4548;DHT22;2286;51.570;7.090;2023-05-15T02:20:16;13.50;99.90
4548;DHT22;2286;51.570;7.090;2023-05-15T02:22:43;13.40;99.90
4548;DHT22;2286;51.570;7.090;2023-05-15T02:25:10;13.40;99.90
4548;DHT22;2286;51.570;7.090;2023-05-15T02:27:43;13.30;99.90
4548;DHT22;2286;51.570;7.090;2023-05-15T02:30:22;13.30;99.90
4548;DHT22;2286;51.570;7.090;2023-05-15T02:33:01;13.40;99.90
4548;DHT22;2286;51.570;7.090;2023-05-15T02:35:33;13.40;99.90
4548;DHT22;2286;51.570;7.090;2023-05-15T02:38:14;13.40;99.90
4548;DHT22;2286;51.570;7.090;2023-05-15T02:40:43;13.40;99.90
4548;DHT22;2286;51.570;7.090;2023-05-15T02:43:12;13.50;99.90
4548;DHT22;2286;51.570;7.090;2023-05-15T02:45:40;13.60;99.90
4548;DHT22;2286;51.570;7.090;2023-05-15T02:48:09;13.60;99.90
4548;DHT22;2286;51.570;7.090;2023-05-15T02:50:36;13.60;99.90
4548;DHT22;2286;51.570;7.090;2023-05-15T02:53:04;13.60;99.90
4548;DHT22;2286;51.570;7.090;2023-05-15T02:55:32;13.50;99.90
4548;DHT22;2286;51.570;7.090;2023-05-15T02:57:59;13.60;99.90
4548;DHT22;2286;51.570;7.090;2023-05-15T03:00:26;13.60;99.90
4548;DHT22;2286;51.570;7.090;2023-05-15T03:02:53;13.60;99.90
4548;DHT22;2286;51.570;7.090;2023-05-15T03:05:22;13.60;99.90
4548;DHT22;2286;51.570;7.090;2023-05-15T03:07:49;13.60;99.90
4548;DHT22;2286;51.570;7.090;2023-05-15T03:10:16;13.60;99.90
4548;DHT22;2286;51.570;7.090;2023-05-15T03:12:43;13.70;99.90
4548;DHT22;2286;51.570;7.090;2023-05-15T03:15:10;13.70;99.90
4548;DHT22;2286;51.570;7.090;2023-05-15T03:17:37;13.60;99.90
4548;DHT22;2286;51.570;7.090;2023-05-15T03:20:05;13.60;99.90
4548;DHT22;2286;51.570;7.090;2023-05-15T03:22:34;13.50;99.90
4548;DHT22;2286;51.570;7.090;2023-05-15T03:25:01;13.60;99.90
4548;DHT22;2286;51.570;7.090;2023-05-15T03:27:28;13.60;99.90
4548;DHT22;2286;51.570;7.090;2023-05-15T03:29:55;13.50;99.90
4548;DHT22;2286;51.570;7.090;2023-05-15T03:32:22;13.50;99.90
4548;DHT22;2286;51.570;7.090;2023-05-15T03:34:49;13.40;99.90
4548;DHT22;2286;51.570;7.090;2023-05-15T03:37:16;13.30;99.90
4548;DHT22;2286;51.570;7.090;2023-05-15T03:39:45;13.30;99.90
4548;DHT22;2286;51.570;7.090;2023-05-15T03:42:12;13.30;99.90
4548;DHT22;2286;51.570;7.090;2023-05-15T03:44:39;13.20;99.90
4548;DHT22;2286;51.570;7.090;2023-05-15T03:47:06;13.30;99.90
4548;DHT22;2286;51.570;7.090;2023-05-15T03:49:33;13.20;99.90
4548;DHT22;2286;51.570;7.090;2023-05-15T03:52:00;13.10;99.90
4548;DHT22;2286;51.570;7.090;2023-05-15T03:54:27;13.10;99.90
4548;DHT22;2286;51.570;7.090;2023-05-15T03:56:56;13.00;99.90
4548;DHT22;2286;51.570;7.090;2023-05-15T03:59:23;13.00;99.90
4548;DHT22;2286;51.570;7.090;2023-05-15T04:01:50;13.00;99.90
4548;DHT22;2286;51.570;7.090;2023-05-15T04:04:17;12.90;99.90
4548;DHT22;2286;51.570;7.090;2023-05-15T04:06:44;12.80;99.90
4548;DHT22;2286;51.570;7.090;2023-05-15T04:09:11;12.80;99.90
4548;DHT22;2286;51.570;7.090;2023-05-15T04:11:38;12.80;99.90
4548;DHT22;2286;51.570;7.090;2023-05-15T04:14:06;12.80;99.90
4548;DHT22;2286;51.570;7.090;2023-05-15T04:16:35;12.70;99.90
4548;DHT22;2286;51.570;7.090;2023-05-15T04:19:02;12.80;99.90
4548;DHT22;2286;51.570;7.090;2023-05-15T04:21:29;12.80;99.90
4548;DHT22;2286;51.570;7.090;2023-05-15T04:23:56;12.80;99.90
4548;DHT22;2286;51.570;7.090;2023-05-15T04:26:23;12.80;99.90
4548;DHT22;2286;51.570;7.090;2023-05-15T04:28:50;12.80;99.90
4548;DHT22;2286;51.570;7.090;2023-05-15T04:31:18;12.80;99.90
4548;DHT22;2286;51.570;7.090;2023-05-15T04:33:45;12.80;99.90
4548;DHT22;2286;51.570;7.090;2023-05-15T04:36:12;12.80;99.90
4548;DHT22;2286;51.570;7.090;2023-05-15T04:38:39;12.80;99.90
4548;DHT22;2286;51.570;7.090;2023-05-15T04:41:06;12.80;57.50
4548;DHT22;2286;51.570;7.090;2023-05-15T04:43:33;12.70;92.30
4548;DHT22;2286;51.570;7.090;2023-05-15T04:46:00;12.80;58.90
4548;DHT22;2286;51.570;7.090;2023-05-15T04:48:29;12.70;1.00
4548;DHT22;2286;51.570;7.090;2023-05-15T04:50:56;12.70;89.40
4548;DHT22;2286;51.570;7.090;2023-05-15T04:53:23;12.70;26.10
4548;DHT22;2286;51.570;7.090;2023-05-15T04:55:50;12.60;29.60
4548;DHT22;2286;51.570;7.090;2023-05-15T04:58:17;12.50;50.00
4548;DHT22;2286;51.570;7.090;2023-05-15T05:00:44;12.50;99.90
4548;DHT22;2286;51.570;7.090;2023-05-15T05:03:11;12.60;99.90
4548;DHT22;2286;51.570;7.090;2023-05-15T05:05:39;12.80;99.90
4548;DHT22;2286;51.570;7.090;2023-05-15T05:08:06;12.80;1.80
4548;DHT22;2286;51.570;7.090;2023-05-15T05:10:33;12.70;1.00
4548;DHT22;2286;51.570;7.090;2023-05-15T05:13:00;12.50;1.00
4548;DHT22;2286;51.570;7.090;2023-05-15T05:15:27;12.30;99.90
4548;DHT22;2286;51.570;7.090;2023-05-15T05:17:54;12.20;99.90
4548;DHT22;2286;51.570;7.090;2023-05-15T05:20:21;12.30;99.90
4548;DHT22;2286;51.570;7.090;2023-05-15T05:22:50;12.30;99.90
4548;DHT22;2286;51.570;7.090;2023-05-15T05:25:17;12.40;99.90
4548;DHT22;2286;51.570;7.090;2023-05-15T05:27:44;12.60;99.90
4548;DHT22;2286;51.570;7.090;2023-05-15T05:30:11;12.60;32.90
4548;DHT22;2286;51.570;7.090;2023-05-15T05:32:39;12.60;37.80
4548;DHT22;2286;51.570;7.090;2023-05-15T05:35:07;12.70;1.00
4548;DHT22;2286;51.570;7.090;2023-05-15T05:37:34;12.60;1.00
4548;DHT22;2286;51.570;7.090;2023-05-15T05:40:03;12.60;1.00
4548;DHT22;2286;51.570;7.090;2023-05-15T05:42:31;12.60;1.00
4548;DHT22;2286;51.570;7.090;2023-05-15T05:44:58;12.50;1.00
4548;DHT22;2286;51.570;7.090;2023-05-15T05:47:25;12.50;34.60
4548;DHT22;2286;51.570;7.090;2023-05-15T05:49:52;12.50;77.40
4548;DHT22;2286;51.570;7.090;2023-05-15T05:52:20;12.40;99.90
4548;DHT22;2286;51.570;7.090;2023-05-15T05:54:47;12.50;99.90
4548;DHT22;2286;51.570;7.090;2023-05-15T05:57:15;12.60;36.00
4548;DHT22;2286;51.570;7.090;2023-05-15T05:59:42;12.60;29.10
4548;DHT22;2286;51.570;7.090;2023-05-15T06:02:10;12.50;1.00
4548;DHT22;2286;51.570;7.090;2023-05-15T06:04:37;12.50;5.30
4548;DHT22;2286;51.570;7.090;2023-05-15T06:07:04;12.50;99.90
4548;DHT22;2286;51.570;7.090;2023-05-15T06:09:31;12.60;95.50
4548;DHT22;2286;51.570;7.090;2023-05-15T06:11:59;12.70;1.00
4548;DHT22;2286;51.570;7.090;2023-05-15T06:14:30;12.70;1.00
4548;DHT22;2286;51.570;7.090;2023-05-15T06:16:57;12.70;1.00
4548;DHT22;2286;51.570;7.090;2023-05-15T06:19:24;12.50;24.10
4548;DHT22;2286;51.570;7.090;2023-05-15T06:21:52;12.50;99.90
4548;DHT22;2286;51.570;7.090;2023-05-15T06:24:19;12.50;22.20
4548;DHT22;2286;51.570;7.090;2023-05-15T06:26:46;12.50;88.70
4548;DHT22;2286;51.570;7.090;2023-05-15T06:29:13;12.60;36.80
4548;DHT22;2286;51.570;7.090;2023-05-15T06:31:41;12.50;75.60
4548;DHT22;2286;51.570;7.090;2023-05-15T06:34:08;12.60;99.90
4548;DHT22;2286;51.570;7.090;2023-05-15T06:36:36;12.50;1.00
4548;DHT22;2286;51.570;7.090;2023-05-15T06:39:03;12.50;36.00
4548;DHT22;2286;51.570;7.090;2023-05-15T06:41:31;12.60;99.90
4548;DHT22;2286;51.570;7.090;2023-05-15T06:43:58;12.70;1.00
4548;DHT22;2286;51.570;7.090;2023-05-15T06:46:26;12.80;1.00
4548;DHT22;2286;51.570;7.090;2023-05-15T06:48:54;13.00;99.90
4548;DHT22;2286;51.570;7.090;2023-05-15T06:51:21;13.10;1.00
4548;DHT22;2286;51.570;7.090;2023-05-15T06:53:48;13.10;1.00
4548;DHT22;2286;51.570;7.090;2023-05-15T06:56:15;13.20;1.00
4548;DHT22;2286;51.570;7.090;2023-05-15T06:58:42;13.30;99.90
4548;DHT22;2286;51.570;7.090;2023-05-15T07:01:10;13.40;1.00
4548;DHT22;2286;51.570;7.090;2023-05-15T07:03:37;13.60;1.00
4548;DHT22;2286;51.570;7.090;2023-05-15T07:06:06;13.70;1.00
4548;DHT22;2286;51.570;7.090;2023-05-15T07:08:33;13.80;1.00
4548;DHT22;2286;51.570;7.090;2023-05-15T07:11:00;14.00;99.90
4548;DHT22;2286;51.570;7.090;2023-05-15T07:13:27;14.00;1.00
4548;DHT22;2286;51.570;7.090;2023-05-15T07:15:54;14.00;1.00
4548;DHT22;2286;51.570;7.090;2023-05-15T07:18:21;14.20;99.90
4548;DHT22;2286;51.570;7.090;2023-05-15T07:20:48;14.60;99.90
4548;DHT22;2286;51.570;7.090;2023-05-15T07:23:16;14.70;99.90
4548;DHT22;2286;51.570;7.090;2023-05-15T07:25:43;14.50;13.20
4548;DHT22;2286;51.570;7.090;2023-05-15T07:28:10;14.40;99.90
4548;DHT22;2286;51.570;7.090;2023-05-15T07:30:37;14.40;99.90
4548;DHT22;2286;51.570;7.090;2023-05-15T07:33:04;14.40;99.90
4548;DHT22;2286;51.570;7.090;2023-05-15T07:35:31;14.50;99.90
4548;DHT22;2286;51.570;7.090;2023-05-15T07:37:58;14.70;52.80
4548;DHT22;2286;51.570;7.090;2023-05-15T07:40:27;15.00;1.00
4548;DHT22;2286;51.570;7.090;2023-05-15T07:42:54;15.00;99.90
4548;DHT22;2286;51.570;7.090;2023-05-15T07:45:21;15.00;1.00
4548;DHT22;2286;51.570;7.090;2023-05-15T07:47:48;15.20;99.90
4548;DHT22;2286;51.570;7.090;2023-05-15T07:50:16;15.10;1.00
4548;DHT22;2286;51.570;7.090;2023-05-15T07:52:43;15.00;1.00
4548;DHT22;2286;51.570;7.090;2023-05-15T07:55:10;15.20;1.00
4548;DHT22;2286;51.570;7.090;2023-05-15T07:57:39;15.40;99.90
4548;DHT22;2286;51.570;7.090;2023-05-15T08:00:07;15.40;1.00
4548;DHT22;2286;51.570;7.090;2023-05-15T08:02:38;15.20;1.00
4548;DHT22;2286;51.570;7.090;2023-05-15T08:05:06;15.10;99.90
4548;DHT22;2286;51.570;7.090;2023-05-15T08:07:34;15.20;1.00
4548;DHT22;2286;51.570;7.090;2023-05-15T08:10:01;15.20;1.00
4548;DHT22;2286;51.570;7.090;2023-05-15T08:12:30;15.30;1.00
4548;DHT22;2286;51.570;7.090;2023-05-15T08:14:59;15.40;1.00
4548;DHT22;2286;51.570;7.090;2023-05-15T08:17:26;15.50;1.00
4548;DHT22;2286;51.570;7.090;2023-05-15T08:19:53;15.60;1.00
4548;DHT22;2286;51.570;7.090;2023-05-15T08:22:20;15.70;1.00
4548;DHT22;2286;51.570;7.090;2023-05-15T08:24:47;15.70;1.00
4548;DHT22;2286;51.570;7.090;2023-05-15T08:27:14;15.60;1.00
4548;DHT22;2286;51.570;7.090;2023-05-15T08:29:42;15.80;11.80
4548;DHT22;2286;51.570;7.090;2023-05-15T08:32:11;15.80;1.00
4548;DHT22;2286;51.570;7.090;2023-05-15T08:34:38;15.70;1.00
4548;DHT22;2286;51.570;7.090;2023-05-15T08:37:05;15.60;99.90
4548;DHT22;2286;51.570;7.090;2023-05-15T08:39:32;15.70;99.90
4548;DHT22;2286;51.570;7.090;2023-05-15T08:42:04;15.70;99.90
4548;DHT22;2286;51.570;7.090;2023-05-15T08:44:34;15.70;1.00
4548;DHT22;2286;51.570;7.090;2023-05-15T08:47:01;15.80;99.90
4548;DHT22;2286;51.570;7.090;2023-05-15T08:49:35;15.80;1.00
4548;DHT22;2286;51.570;7.090;2023-05-15T08:52:06;15.90;1.00
4548;DHT22;2286;51.570;7.090;2023-05-15T08:54:33;16.30;1.00
4548;DHT22;2286;51.570;7.090;2023-05-15T08:57:01;16.80;99.90
4548;DHT22;2286;51.570;7.090;2023-05-15T08:59:29;17.00;1.00
4548;DHT22;2286;51.570;7.090;2023-05-15T09:01:56;16.90;1.00
4548;DHT22;2286;51.570;7.090;2023-05-15T09:04:23;16.80;1.00
4548;DHT22;2286;51.570;7.090;2023-05-15T09:06:53;16.80;1.00
4548;DHT22;2286;51.570;7.090;2023-05-15T09:09:20;16.80;1.00
4548;DHT22;2286;51.570;7.090;2023-05-15T09:11:47;16.90;1.00
4548;DHT22;2286;51.570;7.090;2023-05-15T09:14:15;17.40;1.00
4548;DHT22;2286;51.570;7.090;2023-05-15T09:16:42;17.40;99.90
4548;DHT22;2286;51.570;7.090;2023-05-15T09:19:09;17.70;99.90
4548;DHT22;2286;51.570;7.090;2023-05-15T09:21:37;17.60;99.90
4548;DHT22;2286;51.570;7.090;2023-05-15T09:24:20;17.40;99.90
4548;DHT22;2286;51.570;7.090;2023-05-15T09:27:00;17.40;99.90
4548;DHT22;2286;51.570;7.090;2023-05-15T09:29:31;17.60;99.90
4548;DHT22;2286;51.570;7.090;2023-05-15T09:32:02;17.60;99.90
4548;DHT22;2286;51.570;7.090;2023-05-15T09:34:30;17.70;99.90
4548;DHT22;2286;51.570;7.090;2023-05-15T09:36:59;18.10;99.90
4548;DHT22;2286;51.570;7.090;2023-05-15T09:39:29;17.90;99.90
4548;DHT22;2286;51.570;7.090;2023-05-15T09:42:05;17.90;99.90
4548;DHT22;2286;51.570;7.090;2023-05-15T09:44:32;18.10;99.90
4548;DHT22;2286;51.570;7.090;2023-05-15T09:47:00;18.30;99.90
4548;DHT22;2286;51.570;7.090;2023-05-15T09:49:27;18.50;99.90
4548;DHT22;2286;51.570;7.090;2023-05-15T09:51:57;18.90;99.90
4548;DHT22;2286;51.570;7.090;2023-05-15T09:54:25;19.40;99.90
4548;DHT22;2286;51.570;7.090;2023-05-15T09:56:54;19.60;99.90
4548;DHT22;2286;51.570;7.090;2023-05-15T09:59:21;19.60;99.90
4548;DHT22;2286;51.570;7.090;2023-05-15T10:01:50;20.00;99.90
4548;DHT22;2286;51.570;7.090;2023-05-15T10:04:17;20.10;99.90
4548;DHT22;2286;51.570;7.090;2023-05-15T10:06:46;20.00;99.90
4548;DHT22;2286;51.570;7.090;2023-05-15T10:09:13;19.50;99.90
4548;DHT22;2286;51.570;7.090;2023-05-15T10:11:42;19.60;99.90
4548;DHT22;2286;51.570;7.090;2023-05-15T10:14:12;19.60;99.90
4548;DHT22;2286;51.570;7.090;2023-05-15T10:16:40;19.80;99.90
4548;DHT22;2286;51.570;7.090;2023-05-15T10:19:08;20.00;99.90
4548;DHT22;2286;51.570;7.090;2023-05-15T10:21:36;20.30;99.90
4548;DHT22;2286;51.570;7.090;2023-05-15T10:24:04;20.40;99.90
4548;DHT22;2286;51.570;7.090;2023-05-15T10:26:35;21.20;99.90
4548;DHT22;2286;51.570;7.090;2023-05-15T10:29:05;21.70;99.90
4548;DHT22;2286;51.570;7.090;2023-05-15T10:31:34;22.50;99.90
4548;DHT22;2286;51.570;7.090;2023-05-15T10:34:01;23.40;99.90
4548;DHT22;2286;51.570;7.090;2023-05-15T10:36:29;23.70;99.90
4548;DHT22;2286;51.570;7.090;2023-05-15T10:38:59;24.00;99.90
4548;DHT22;2286;51.570;7.090;2023-05-15T10:41:27;24.30;99.90
4548;DHT22;2286;51.570;7.090;2023-05-15T10:43:57;24.60;99.90
4548;DHT22;2286;51.570;7.090;2023-05-15T10:46:25;24.50;99.90
4548;DHT22;2286;51.570;7.090;2023-05-15T10:48:53;24.20;99.90
4548;DHT22;2286;51.570;7.090;2023-05-15T10:51:24;24.50;99.90
4548;DHT22;2286;51.570;7.090;2023-05-15T10:53:52;24.80;99.90
4548;DHT22;2286;51.570;7.090;2023-05-15T10:56:19;25.30;99.90
4548;DHT22;2286;51.570;7.090;2023-05-15T10:58:47;24.90;99.90
4548;DHT22;2286;51.570;7.090;2023-05-15T11:01:25;25.70;99.90
4548;DHT22;2286;51.570;7.090;2023-05-15T11:04:08;25.80;99.90
4548;DHT22;2286;51.570;7.090;2023-05-15T11:06:37;25.50;99.90
4548;DHT22;2286;51.570;7.090;2023-05-15T11:09:37;24.70;99.90
4548;DHT22;2286;51.570;7.090;2023-05-15T11:12:06;24.40;99.90
4548;DHT22;2286;51.570;7.090;2023-05-15T11:14:35;25.30;99.90
4548;DHT22;2286;51.570;7.090;2023-05-15T11:17:04;25.30;99.90
4548;DHT22;2286;51.570;7.090;2023-05-15T11:22:21;25.60;99.90
4548;DHT22;2286;51.570;7.090;2023-05-15T11:24:52;26.30;99.90
4548;DHT22;2286;51.570;7.090;2023-05-15T11:27:21;26.20;99.90
4548;DHT22;2286;51.570;7.090;2023-05-15T11:30:09;25.30;99.90
4548;DHT22;2286;51.570;7.090;2023-05-15T11:32:44;25.60;99.90
4548;DHT22;2286;51.570;7.090;2023-05-15T11:35:14;25.70;99.90
4548;DHT22;2286;51.570;7.090;2023-05-15T11:37:45;26.50;99.90
4548;DHT22;2286;51.570;7.090;2023-05-15T11:40:13;27.40;99.90
4548;DHT22;2286;51.570;7.090;2023-05-15T11:42:41;28.70;99.90
4548;DHT22;2286;51.570;7.090;2023-05-15T11:45:09;28.70;99.90
4548;DHT22;2286;51.570;7.090;2023-05-15T11:47:37;28.40;99.90
4548;DHT22;2286;51.570;7.090;2023-05-15T11:50:05;28.80;99.90
4548;DHT22;2286;51.570;7.090;2023-05-15T11:52:33;29.40;99.90
4548;DHT22;2286;51.570;7.090;2023-05-15T11:55:02;28.10;99.90
4548;DHT22;2286;51.570;7.090;2023-05-15T11:57:29;29.70;99.90
4548;DHT22;2286;51.570;7.090;2023-05-15T11:59:56;30.70;99.90
4548;DHT22;2286;51.570;7.090;2023-05-15T12:02:23;31.60;99.90
4548;DHT22;2286;51.570;7.090;2023-05-15T12:04:50;31.70;99.90
4548;DHT22;2286;51.570;7.090;2023-05-15T12:07:17;29.60;99.90
4548;DHT22;2286;51.570;7.090;2023-05-15T12:09:50;30.50;99.90
4548;DHT22;2286;51.570;7.090;2023-05-15T12:12:18;30.60;99.90
4548;DHT22;2286;51.570;7.090;2023-05-15T12:14:45;30.60;99.90
4548;DHT22;2286;51.570;7.090;2023-05-15T12:17:12;30.90;99.90
4548;DHT22;2286;51.570;7.090;2023-05-15T12:19:40;31.40;99.90
4548;DHT22;2286;51.570;7.090;2023-05-15T12:22:08;31.60;99.90
4548;DHT22;2286;51.570;7.090;2023-05-15T12:24:37;31.20;99.90
4548;DHT22;2286;51.570;7.090;2023-05-15T12:27:07;31.50;99.90
4548;DHT22;2286;51.570;7.090;2023-05-15T12:29:35;33.20;99.90
4548;DHT22;2286;51.570;7.090;2023-05-15T12:32:03;34.30;99.90
4548;DHT22;2286;51.570;7.090;2023-05-15T12:34:30;34.40;99.90
4548;DHT22;2286;51.570;7.090;2023-05-15T12:36:58;32.30;99.90
4548;DHT22;2286;51.570;7.090;2023-05-15T12:39:25;31.30;99.90
4548;DHT22;2286;51.570;7.090;2023-05-15T12:41:52;30.70;99.90
4548;DHT22;2286;51.570;7.090;2023-05-15T12:44:21;30.40;99.90
4548;DHT22;2286;51.570;7.090;2023-05-15T12:46:53;31.00;99.90
4548;DHT22;2286;51.570;7.090;2023-05-15T12:49:21;32.00;99.90
4548;DHT22;2286;51.570;7.090;2023-05-15T12:51:48;32.90;99.90
4548;DHT22;2286;51.570;7.090;2023-05-15T12:54:16;33.30;99.90
4548;DHT22;2286;51.570;7.090;2023-05-15T12:56:44;31.60;99.90
4548;DHT22;2286;51.570;7.090;2023-05-15T12:59:11;30.70;99.90
4548;DHT22;2286;51.570;7.090;2023-05-15T13:01:41;30.80;99.90
4548;DHT22;2286;51.570;7.090;2023-05-15T13:04:08;30.60;99.90
4548;DHT22;2286;51.570;7.090;2023-05-15T13:06:37;29.70;99.90
4548;DHT22;2286;51.570;7.090;2023-05-15T13:09:05;28.10;99.90
4548;DHT22;2286;51.570;7.090;2023-05-15T13:11:32;29.00;99.90
4548;DHT22;2286;51.570;7.090;2023-05-15T13:13:59;30.70;99.90
4548;DHT22;2286;51.570;7.090;2023-05-15T13:16:27;32.10;99.90
4548;DHT22;2286;51.570;7.090;2023-05-15T13:18:56;32.50;99.90
4548;DHT22;2286;51.570;7.090;2023-05-15T13:21:23;32.60;99.90
4548;DHT22;2286;51.570;7.090;2023-05-15T13:23:50;33.10;99.90
4548;DHT22;2286;51.570;7.090;2023-05-15T13:26:18;32.00;99.90
4548;DHT22;2286;51.570;7.090;2023-05-15T13:28:45;30.30;99.90
4548;DHT22;2286;51.570;7.090;2023-05-15T13:31:12;30.80;99.90
4548;DHT22;2286;51.570;7.090;2023-05-15T13:33:39;32.10;99.90
4548;DHT22;2286;51.570;7.090;2023-05-15T13:36:08;32.70;99.90
4548;DHT22;2286;51.570;7.090;2023-05-15T13:38:35;32.50;99.90
4548;DHT22;2286;51.570;7.090;2023-05-15T13:41:03;33.10;99.90
4548;DHT22;2286;51.570;7.090;2023-05-15T13:43:30;33.50;99.90
4548;DHT22;2286;51.570;7.090;2023-05-15T13:45:57;32.90;99.90
4548;DHT22;2286;51.570;7.090;2023-05-15T13:48:24;32.50;99.90
4548;DHT22;2286;51.570;7.090;2023-05-15T13:50:51;32.60;99.90
4548;DHT22;2286;51.570;7.090;2023-05-15T13:53:19;33.90;99.90
4548;DHT22;2286;51.570;7.090;2023-05-15T13:55:46;34.00;99.90
4548;DHT22;2286;51.570;7.090;2023-05-15T13:58:13;31.70;99.90
4548;DHT22;2286;51.570;7.090;2023-05-15T14:00:42;30.00;99.90
4548;DHT22;2286;51.570;7.090;2023-05-15T14:03:09;28.70;99.90
4548;DHT22;2286;51.570;7.090;2023-05-15T14:05:37;28.90;99.90
4548;DHT22;2286;51.570;7.090;2023-05-15T14:08:04;29.80;99.90
4548;DHT22;2286;51.570;7.090;2023-05-15T14:10:33;30.50;99.90
4548;DHT22;2286;51.570;7.090;2023-05-15T14:13:01;30.90;99.90
4548;DHT22;2286;51.570;7.090;2023-05-15T14:15:28;31.70;99.90
4548;DHT22;2286;51.570;7.090;2023-05-15T14:17:55;32.40;99.90
4548;DHT22;2286;51.570;7.090;2023-05-15T14:20:22;31.60;99.90
4548;DHT22;2286;51.570;7.090;2023-05-15T14:22:49;30.80;99.90
4548;DHT22;2286;51.570;7.090;2023-05-15T14:25:16;29.00;99.90
4548;DHT22;2286;51.570;7.090;2023-05-15T14:27:45;27.30;99.90
4548;DHT22;2286;51.570;7.090;2023-05-15T14:30:12;26.60;99.90
4548;DHT22;2286;51.570;7.090;2023-05-15T14:32:39;26.90;99.90
4548;DHT22;2286;51.570;7.090;2023-05-15T14:35:06;27.90;99.90
4548;DHT22;2286;51.570;7.090;2023-05-15T14:37:34;29.20;99.90
4548;DHT22;2286;51.570;7.090;2023-05-15T14:40:01;31.10;99.90
4548;DHT22;2286;51.570;7.090;2023-05-15T14:42:29;31.40;99.90
4548;DHT22;2286;51.570;7.090;2023-05-15T14:44:57;31.00;99.90
4548;DHT22;2286;51.570;7.090;2023-05-15T14:47:24;29.00;99.90
4548;DHT22;2286;51.570;7.090;2023-05-15T14:49:52;27.50;99.90
4548;DHT22;2286;51.570;7.090;2023-05-15T14:52:20;26.60;99.90
4548;DHT22;2286;51.570;7.090;2023-05-15T14:54:47;27.70;99.90
4548;DHT22;2286;51.570;7.090;2023-05-15T14:57:14;28.30;99.90
4548;DHT22;2286;51.570;7.090;2023-05-15T14:59:45;27.80;99.90
4548;DHT22;2286;51.570;7.090;2023-05-15T15:02:13;26.90;99.90
4548;DHT22;2286;51.570;7.090;2023-05-15T15:04:40;26.00;99.90
4548;DHT22;2286;51.570;7.090;2023-05-15T15:07:09;25.00;99.90
4548;DHT22;2286;51.570;7.090;2023-05-15T15:09:36;24.60;99.90
4548;DHT22;2286;51.570;7.090;2023-05-15T15:12:04;23.80;99.90
4548;DHT22;2286;51.570;7.090;2023-05-15T15:14:31;23.50;99.90
4548;DHT22;2286;51.570;7.090;2023-05-15T15:16:58;23.20;99.90
4548;DHT22;2286;51.570;7.090;2023-05-15T15:19:27;23.00;99.90
4548;DHT22;2286;51.570;7.090;2023-05-15T15:21:54;22.70;99.90
4548;DHT22;2286;51.570;7.090;2023-05-15T15:24:21;22.60;99.90
4548;DHT22;2286;51.570;7.090;2023-05-15T15:26:48;22.60;99.90
4548;DHT22;2286;51.570;7.090;2023-05-15T15:29:15;22.80;99.90
4548;DHT22;2286;51.570;7.090;2023-05-15T15:31:42;23.50;99.90
4548;DHT22;2286;51.570;7.090;2023-05-15T15:34:09;23.90;99.90
4548;DHT22;2286;51.570;7.090;2023-05-15T15:36:38;23.80;99.90
4548;DHT22;2286;51.570;7.090;2023-05-15T15:39:06;23.00;99.90
4548;DHT22;2286;51.570;7.090;2023-05-15T15:41:36;23.50;99.90
4548;DHT22;2286;51.570;7.090;2023-05-15T15:44:04;23.80;99.90
4548;DHT22;2286;51.570;7.090;2023-05-15T15:46:31;24.80;99.90
4548;DHT22;2286;51.570;7.090;2023-05-15T15:48:58;25.20;99.90
4548;DHT22;2286;51.570;7.090;2023-05-15T15:51:25;26.40;99.90
4548;DHT22;2286;51.570;7.090;2023-05-15T15:53:54;28.50;99.90
4548;DHT22;2286;51.570;7.090;2023-05-15T15:56:21;28.50;99.90
4548;DHT22;2286;51.570;7.090;2023-05-15T15:58:48;28.20;99.90
4548;DHT22;2286;51.570;7.090;2023-05-15T16:01:15;27.90;99.90
4548;DHT22;2286;51.570;7.090;2023-05-15T16:03:42;27.40;99.90
4548;DHT22;2286;51.570;7.090;2023-05-15T16:06:09;26.20;99.90
4548;DHT22;2286;51.570;7.090;2023-05-15T16:08:36;25.50;99.90
4548;DHT22;2286;51.570;7.090;2023-05-15T16:11:05;25.20;99.90
4548;DHT22;2286;51.570;7.090;2023-05-15T16:13:32;24.90;99.90